Time;durP1;ratioP1;P1;durP2;ratioP2;P2;SDS_P1;SDS_P2;PMS_P1;PMS_P2;Temp;Humidity;BMP_temperature;BMP_pressure;BME280_temperature;BME280_humidity;BME280_pressure;Samples;Min_cycle;Max_cycle;Signal;HPM_P1;HPM_P2
2023/07/23 00:00:41;;;;;;;240.20;140.75;;;;;;;14.16;100.00;99392.22;5041761;28;20433;-80
2023/07/23 00:03:07;;;;;;;243.88;142.27;;;;;;;14.17;100.00;99396.56;5058239;28;20039;-81
2023/07/23 00:05:33;;;;;;;298.50;166.20;;;;;;;14.10;100.00;99391.25;5054463;28;20036;-80
2023/07/23 00:07:59;;;;;;;306.08;170.70;;;;;;;14.14;100.00;99410.56;5021442;28;20028;-80
2023/07/23 00:10:25;;;;;;;253.77;146.52;;;;;;;14.08;100.00;99391.50;5054309;28;20116;-80
2023/07/23 00:12:52;;;;;;;297.77;166.55;;;;;;;14.13;100.00;99400.78;5063697;28;20043;-79
2023/07/23 00:15:18;;;;;;;253.95;146.52;;;;;;;14.13;100.00;99395.38;5057992;28;20078;-80
2023/07/23 00:17:43;;;;;;;253.98;146.45;;;;;;;14.11;100.00;99398.31;5041147;28;20052;-80
2023/07/23 00:20:10;;;;;;;249.13;144.60;;;;;;;14.13;100.00;99398.91;5074415;28;20033;-80
2023/07/23 00:22:39;;;;;;;250.43;145.13;;;;;;;14.11;100.00;99395.63;5039722;28;20029;-81
2023/07/23 00:25:06;;;;;;;251.95;146.02;;;;;;;14.11;100.00;99400.22;5051009;28;20040;-80
2023/07/23 00:27:32;;;;;;;253.75;146.50;;;;;;;13.96;100.00;99371.72;5041170;28;20067;-80
2023/07/23 00:29:58;;;;;;;249.73;145.02;;;;;;;14.09;100.00;99400.44;5074031;28;20475;-81
2023/07/23 00:32:23;;;;;;;242.40;141.73;;;;;;;13.95;100.00;99375.50;5057719;28;20036;-80
2023/07/23 00:34:49;;;;;;;245.90;143.38;;;;;;;14.10;100.00;99398.53;5039743;28;20029;-80
2023/07/23 00:37:17;;;;;;;247.05;143.90;;;;;;;14.05;100.00;99391.13;5057241;28;20028;-80
2023/07/23 00:39:42;;;;;;;249.35;145.02;;;;;;;14.04;100.00;99393.00;5057200;28;20032;-80
2023/07/23 00:42:08;;;;;;;248.68;144.70;;;;;;;14.03;100.00;99395.97;5073677;28;20383;-80
2023/07/23 00:44:34;;;;;;;249.82;145.27;;;;;;;13.98;100.00;99385.00;5057299;28;20510;-80
2023/07/23 00:47:01;;;;;;;249.38;144.70;;;;;;;14.01;100.00;99392.66;5073560;28;20395;-81
2023/07/23 00:49:27;;;;;;;281.00;157.90;;;;;;;14.00;100.00;99391.84;5024411;28;20043;-81
2023/07/23 00:51:53;;;;;;;290.52;162.00;;;;;;;13.90;100.00;99372.66;5073618;28;20032;-81
2023/07/23 00:54:19;;;;;;;302.67;168.68;;;;;;;13.95;100.00;99372.78;5057111;28;20063;-80
2023/07/23 00:56:46;;;;;;;269.83;152.98;;;;;;;13.99;100.00;99386.66;5073450;28;20037;-81
2023/07/23 00:59:12;;;;;;;307.95;171.23;;;;;;;13.99;100.00;99389.34;5057119;28;20059;-80
2023/07/23 01:01:37;;;;;;;307.85;171.57;;;;;;;13.96;100.00;99384.41;5036908;28;20444;-80
2023/07/23 01:04:04;;;;;;;289.02;161.88;;;;;;;14.02;100.00;99389.72;5053672;28;20417;-80
2023/07/23 01:06:32;;;;;;;308.10;171.75;;;;;;;14.02;100.00;99384.31;5046054;28;20096;-80
2023/07/23 01:08:58;;;;;;;303.48;169.70;;;;;;;13.99;100.00;99390.16;5053597;28;20029;-80
2023/07/23 01:11:25;;;;;;;247.45;144.25;;;;;;;13.91;100.00;99377.00;5046464;28;20376;-80
2023/07/23 01:13:51;;;;;;;300.23;167.63;;;;;;;14.04;100.00;99392.19;5040205;28;20025;-81
2023/07/23 01:16:18;;;;;;;293.13;163.95;;;;;;;14.01;100.00;99387.25;5073381;28;20035;-80
2023/07/23 01:18:45;;;;;;;301.58;167.93;;;;;;;14.03;100.00;99396.78;5040300;28;20491;-80
2023/07/23 01:21:11;;;;;;;295.75;165.05;;;;;;;13.93;100.00;99372.19;5056694;28;20045;-80
2023/07/23 01:23:37;;;;;;;247.90;144.43;;;;;;;14.03;100.00;99391.38;5054914;28;20112;-80
2023/07/23 01:26:03;;;;;;;242.88;142.52;;;;;;;14.05;100.00;99383.00;5073055;28;20111;-80
2023/07/23 01:28:30;;;;;;;237.02;139.93;;;;;;;14.04;100.00;99382.19;5040223;28;20043;-80
2023/07/23 01:30:56;;;;;;;237.27;140.07;;;;;;;14.05;100.00;99383.00;5074210;28;20028;-80
2023/07/23 01:33:22;;;;;;;234.07;138.85;;;;;;;14.01;100.00;99377.25;5072008;28;20111;-80
2023/07/23 01:35:52;;;;;;;231.02;137.35;;;;;;;14.00;100.00;99372.91;5056484;28;20033;-80
2023/07/23 01:38:18;;;;;;;232.05;138.02;;;;;;;14.04;100.00;99376.78;5072899;28;20064;-80
2023/07/23 01:40:45;;;;;;;234.50;138.82;;;;;;;14.06;100.00;99373.88;5072585;28;20078;-80
2023/07/23 01:43:11;;;;;;;233.23;138.70;;;;;;;14.03;100.00;99368.94;5056659;28;20032;-81
2023/07/23 01:45:41;;;;;;;236.32;139.60;;;;;;;13.97;100.00;99359.88;5052448;28;20025;-80
2023/07/23 01:48:07;;;;;;;234.20;138.93;;;;;;;14.03;100.00;99372.44;5019536;28;20036;-80
2023/07/23 01:50:32;;;;;;;234.57;139.15;;;;;;;14.04;100.00;99376.78;5036383;28;20029;-80
2023/07/23 01:52:58;;;;;;;236.68;140.15;;;;;;;14.05;100.00;99375.75;5052749;28;20062;-80
2023/07/23 01:55:23;;;;;;;233.82;138.68;;;;;;;14.04;100.00;99382.19;5052610;28;20101;-80
2023/07/23 01:57:49;;;;;;;233.57;138.45;;;;;;;13.99;100.00;99373.97;5072715;28;20036;-80
2023/07/23 02:00:15;;;;;;;241.77;142.00;;;;;;;13.98;100.00;99366.09;5072806;28;20035;-80
2023/07/23 02:02:40;;;;;;;236.13;139.73;;;;;;;13.97;100.00;99370.69;5073247;28;20028;-80
2023/07/23 02:05:06;;;;;;;238.95;141.15;;;;;;;14.01;100.00;99366.44;5056093;28;20030;-81
2023/07/23 02:07:32;;;;;;;243.13;142.35;;;;;;;14.02;100.00;99376.19;5072780;28;20033;-80
2023/07/23 02:09:57;;;;;;;237.05;140.13;;;;;;;13.96;100.00;99360.91;5072594;28;20067;-80
2023/07/23 02:12:23;;;;;;;240.75;141.80;;;;;;;13.81;100.00;99326.25;5051750;28;20033;-80
2023/07/23 02:14:48;;;;;;;243.35;142.70;;;;;;;13.91;100.00;99333.75;5052188;28;20025;-80
2023/07/23 02:17:14;;;;;;;301.45;168.57;;;;;;;13.98;100.00;99350.69;5035759;28;20079;-80
2023/07/23 02:19:40;;;;;;;288.92;161.85;;;;;;;13.94;100.00;99344.09;5053695;28;20029;-80
2023/07/23 02:22:05;;;;;;;251.32;145.68;;;;;;;14.07;100.00;99365.50;5055333;28;20033;-80
2023/07/23 02:24:31;;;;;;;305.65;170.75;;;;;;;14.06;100.00;99357.66;5039061;28;20055;-80
2023/07/23 02:26:56;;;;;;;306.45;171.63;;;;;;;13.98;100.00;99349.88;5038905;28;20101;-80
2023/07/23 02:29:22;;;;;;;296.35;165.90;;;;;;;14.07;100.00;99360.09;5055855;28;20089;-81
2023/07/23 02:31:48;;;;;;;264.63;151.95;;;;;;;14.08;100.00;99367.19;5051687;28;20036;-81
2023/07/23 02:34:14;;;;;;;277.63;157.15;;;;;;;14.02;100.00;99351.88;5052849;28;20472;-81
2023/07/23 02:36:39;;;;;;;235.43;139.60;;;;;;;13.99;100.00;99348.81;5040003;28;20036;-79
2023/07/23 02:39:05;;;;;;;240.82;141.60;;;;;;;14.04;100.00;99359.75;5039870;28;20531;-79
2023/07/23 02:41:31;;;;;;;228.38;136.43;;;;;;;14.05;100.00;99364.94;5056312;28;20028;-79
2023/07/23 02:43:57;;;;;;;227.10;135.95;;;;;;;14.06;100.00;99366.56;5050433;28;20025;-79
2023/07/23 02:46:23;;;;;;;226.65;135.40;;;;;;;14.08;100.00;99366.34;5056160;28;20036;-79
2023/07/23 02:48:48;;;;;;;226.57;135.80;;;;;;;13.99;100.00;99346.94;5056410;28;20530;-81
2023/07/23 02:51:14;;;;;;;231.18;137.65;;;;;;;14.09;100.00;99365.28;5056295;28;20072;-80
2023/07/23 02:53:40;;;;;;;228.02;136.48;;;;;;;14.10;100.00;99369.63;5057003;28;20063;-79
2023/07/23 02:56:05;;;;;;;228.70;136.65;;;;;;;14.03;100.00;99353.53;5053667;28;20097;-79
2023/07/23 02:58:31;;;;;;;228.10;136.52;;;;;;;14.01;100.00;99350.22;5058961;28;20093;-79
2023/07/23 03:00:57;;;;;;;227.25;135.98;;;;;;;14.06;100.00;99360.34;5042878;28;20055;-79
2023/07/23 03:03:23;;;;;;;230.88;137.10;;;;;;;14.05;100.00;99358.69;5056419;28;20033;-79
2023/07/23 03:05:49;;;;;;;227.90;136.50;;;;;;;14.05;100.00;99362.25;5055019;28;20037;-78
2023/07/23 03:08:14;;;;;;;227.40;136.30;;;;;;;14.05;100.00;99362.25;5039704;28;20025;-80
2023/07/23 03:10:41;;;;;;;228.18;136.63;;;;;;;14.05;100.00;99364.09;5039348;28;20032;-79
2023/07/23 03:13:07;;;;;;;232.35;138.15;;;;;;;14.02;100.00;99356.47;5041683;28;20399;-79
2023/07/23 03:15:34;;;;;;;228.07;136.80;;;;;;;13.99;100.00;99357.75;5059533;28;20452;-79
2023/07/23 03:18:03;;;;;;;224.43;135.00;;;;;;;13.83;100.00;99324.13;5059255;28;20039;-80
2023/07/23 03:20:29;;;;;;;223.32;134.55;;;;;;;13.96;100.00;99352.81;5038627;28;20138;-79
2023/07/23 03:22:55;;;;;;;221.27;133.88;;;;;;;13.90;100.00;99340.25;5022183;28;20483;-79
2023/07/23 03:25:20;;;;;;;224.88;135.20;;;;;;;13.87;100.00;99342.59;5028978;28;20036;-79
2023/07/23 03:27:46;;;;;;;224.38;135.20;;;;;;;13.92;100.00;99351.66;5075402;28;20112;-79
2023/07/23 03:30:12;;;;;;;224.80;135.27;;;;;;;13.86;100.00;99341.75;5059578;28;20360;-79
2023/07/23 03:32:38;;;;;;;223.50;134.70;;;;;;;13.94;100.00;99360.31;5042216;28;20360;-82
2023/07/23 03:35:04;;;;;;;224.32;135.30;;;;;;;13.93;100.00;99355.16;5058568;28;20037;-80
2023/07/23 03:37:30;;;;;;;226.82;136.00;;;;;;;13.94;100.00;99357.63;5058094;28;20044;-80
2023/07/23 03:39:55;;;;;;;228.07;136.70;;;;;;;13.87;100.00;99340.72;5074420;28;20048;-79
2023/07/23 03:42:21;;;;;;;230.50;137.45;;;;;;;13.89;100.00;99345.84;5075226;28;20086;-79
2023/07/23 03:44:47;;;;;;;227.00;136.52;;;;;;;13.97;100.00;99364.44;5058565;28;20103;-79
2023/07/23 03:47:14;;;;;;;229.18;137.25;;;;;;;13.94;100.00;99360.31;5057175;28;20074;-79
2023/07/23 03:49:40;;;;;;;233.10;137.85;;;;;;;13.94;100.00;99354.09;5040716;28;20029;-79
2023/07/23 03:52:06;;;;;;;228.73;136.98;;;;;;;13.85;100.00;99340.09;5075009;28;20055;-79
2023/07/23 03:54:32;;;;;;;233.07;138.90;;;;;;;13.90;100.00;99350.22;5075101;28;20032;-80
2023/07/23 03:56:58;;;;;;;232.52;138.77;;;;;;;13.86;100.00;99339.03;5041876;28;20399;-79
2023/07/23 03:59:30;;;;;;;234.77;139.43;;;;;;;13.98;100.00;99352.59;5075052;28;20471;-80
2023/07/23 04:01:56;;;;;;;236.90;140.07;;;;;;;13.95;100.00;99351.19;5057712;28;20031;-79
2023/07/23 04:04:23;;;;;;;254.60;147.63;;;;;;;13.95;100.00;99353.06;5074714;28;20395;-80
2023/07/23 04:06:48;;;;;;;261.90;151.20;;;;;;;13.94;100.00;99357.63;5040861;28;20028;-79
2023/07/23 04:09:14;;;;;;;242.75;142.63;;;;;;;13.90;100.00;99351.03;5058351;28;20040;-79
2023/07/23 04:11:39;;;;;;;265.00;152.60;;;;;;;13.84;100.00;99333.06;5074703;28;20032;-79
2023/07/23 04:14:06;;;;;;;291.20;163.77;;;;;;;13.87;100.00;99338.00;5074646;28;20468;-79
2023/07/23 04:16:32;;;;;;;296.83;166.88;;;;;;;13.92;100.00;99354.34;5057482;28;20032;-79
2023/07/23 04:18:58;;;;;;;294.17;165.15;;;;;;;13.82;100.00;99341.38;5074997;28;20036;-79
2023/07/23 04:21:23;;;;;;;285.88;161.27;;;;;;;13.90;100.00;99356.44;5074260;28;20429;-79
2023/07/23 04:23:50;;;;;;;287.02;161.68;;;;;;;13.82;100.00;99343.28;5054217;28;20036;-79
2023/07/23 04:26:17;;;;;;;292.27;164.23;;;;;;;13.88;100.00;99355.03;5054081;28;20029;-80
2023/07/23 04:28:43;;;;;;;300.70;168.95;;;;;;;13.89;100.00;99356.66;5037621;28;20036;-80
2023/07/23 04:31:09;;;;;;;293.65;165.13;;;;;;;13.87;100.00;99351.50;5037707;28;20033;-80
2023/07/23 04:33:35;;;;;;;296.10;166.15;;;;;;;13.92;100.00;99357.03;5041973;28;20047;-80
2023/07/23 04:36:02;;;;;;;291.75;164.07;;;;;;;13.95;100.00;99353.06;5057655;28;20382;-79
2023/07/23 04:38:28;;;;;;;293.30;164.85;;;;;;;13.96;100.00;99352.00;5057733;28;20117;-80
2023/07/23 04:40:53;;;;;;;295.75;165.95;;;;;;;13.95;100.00;99344.94;5056395;28;20060;-81
2023/07/23 04:43:19;;;;;;;298.70;167.80;;;;;;;13.95;100.00;99351.19;5074439;28;20039;-80
2023/07/23 04:45:45;;;;;;;292.58;164.13;;;;;;;13.99;100.00;99357.75;5040886;28;20429;-80
2023/07/23 04:48:12;;;;;;;292.35;163.93;;;;;;;13.89;100.00;99340.47;5073603;28;20028;-80
2023/07/23 04:50:38;;;;;;;237.90;140.65;;;;;;;14.00;100.00;99359.41;5057116;28;20113;-80
2023/07/23 04:53:03;;;;;;;235.02;139.05;;;;;;;14.00;100.00;99364.00;5040827;28;20540;-80
2023/07/23 04:55:29;;;;;;;238.07;140.70;;;;;;;13.99;100.00;99359.63;5073798;28;20032;-80
2023/07/23 04:57:55;;;;;;;236.85;140.07;;;;;;;14.02;100.00;99368.09;5073624;28;20115;-80
2023/07/23 05:00:21;;;;;;;240.10;141.13;;;;;;;13.97;100.00;99365.28;5056004;28;20029;-82
2023/07/23 05:02:47;;;;;;;239.82;141.43;;;;;;;13.97;100.00;99362.59;5052227;28;20033;-79
2023/07/23 05:05:12;;;;;;;242.25;142.10;;;;;;;13.98;100.00;99361.50;5055331;28;20478;-80
2023/07/23 05:07:39;;;;;;;283.65;159.75;;;;;;;14.05;100.00;99372.19;5054366;28;20029;-79
2023/07/23 05:10:05;;;;;;;287.25;161.90;;;;;;;13.94;100.00;99349.50;5053536;28;20033;-80
2023/07/23 05:12:30;;;;;;;286.35;160.82;;;;;;;14.09;100.00;99376.09;5053685;28;20095;-80
2023/07/23 05:15:09;;;;;;;285.60;161.10;;;;;;;14.03;100.00;99367.03;5073205;28;20425;-80
2023/07/23 05:17:35;;;;;;;240.02;141.20;;;;;;;14.07;100.00;99376.31;5073118;28;20032;-80
2023/07/23 05:20:01;;;;;;;240.60;141.32;;;;;;;14.08;100.00;99375.28;5056258;28;20101;-80
2023/07/23 05:22:26;;;;;;;237.10;140.05;;;;;;;14.13;100.00;99376.44;5056159;28;20056;-80
2023/07/23 05:24:52;;;;;;;237.60;140.15;;;;;;;14.20;100.00;99379.88;5074194;28;20040;-80
2023/07/23 05:27:17;;;;;;;234.48;138.77;;;;;;;14.21;100.00;99376.94;5039852;28;20110;-81
2023/07/23 05:29:43;;;;;;;235.05;138.85;;;;;;;14.15;100.00;99356.25;5056883;28;20044;-80
2023/07/23 05:32:08;;;;;;;239.85;140.93;;;;;;;14.28;100.00;99372.25;5055970;28;20493;-80
2023/07/23 05:34:34;;;;;;;297.48;165.90;;;;;;;14.26;100.00;99362.72;5073160;28;20040;-79
2023/07/23 05:37:00;;;;;;;289.33;161.88;;;;;;;14.40;100.00;99385.78;5039869;28;20040;-81
2023/07/23 05:39:25;;;;;;;294.27;164.43;;;;;;;14.39;100.00;99373.28;5056386;28;20112;-80
2023/07/23 05:41:51;;;;;;;296.88;165.75;;;;;;;14.31;100.00;99360.13;5056584;28;20074;-80
2023/07/23 05:44:17;;;;;;;248.48;144.07;;;;;;;14.54;100.00;99391.00;5055736;28;20028;-80
2023/07/23 05:46:43;;;;;;;246.02;143.23;;;;;;;14.60;100.00;99390.84;5072262;28;20036;-79
2023/07/23 05:49:09;;;;;;;299.48;166.60;;;;;;;14.63;100.00;99390.41;5055661;28;20360;-79
2023/07/23 05:51:34;;;;;;;289.90;161.45;;;;;;;14.68;100.00;99395.91;5039734;28;20029;-80
2023/07/23 05:54:00;;;;;;;279.95;157.18;;;;;;;14.61;100.00;99389.81;5056174;28;20024;-79
2023/07/23 05:56:26;;;;;;;284.98;159.30;;;;;;;14.56;100.00;99378.88;5055886;28;20040;-80
2023/07/23 05:58:52;;;;;;;279.25;156.38;;;;;;;14.72;100.00;99399.81;5055215;28;20036;-79
2023/07/23 06:01:18;;;;;;;281.58;157.05;;;;;;;14.71;100.00;99403.56;5056102;28;20043;-79
2023/07/23 06:03:43;;;;;;;286.00;159.48;;;;;;;14.74;100.00;99405.00;5039448;28;20075;-79
2023/07/23 06:06:09;;;;;;;279.20;156.32;;;;;;;14.69;100.00;99391.34;5039985;28;20028;-80
2023/07/23 06:08:34;;;;;;;283.58;158.63;;;;;;;14.77;100.00;99406.41;5056094;28;20386;-79
2023/07/23 06:11:00;;;;;;;286.85;159.57;;;;;;;14.74;100.00;99402.28;5055217;28;20475;-80
2023/07/23 06:13:25;;;;;;;286.40;159.57;;;;;;;14.72;100.00;99398.97;5051783;28;20115;-80
2023/07/23 06:15:51;;;;;;;284.48;158.73;;;;;;;14.71;100.00;99397.31;5035982;28;20033;-80
2023/07/23 06:18:25;;;;;;;270.77;152.35;;;;;;;14.73;100.00;99404.16;5035406;28;20041;-79
2023/07/23 06:20:53;;;;;;;277.95;155.75;;;;;;;14.75;100.00;99409.34;5019479;28;20091;-80
2023/07/23 06:23:19;;;;;;;282.40;157.57;;;;;;;14.60;100.00;99384.63;5044576;28;20059;-80
2023/07/23 06:25:45;;;;;;;283.95;158.27;;;;;;;14.69;100.00;99402.16;5055814;28;20060;-80
2023/07/23 06:28:17;;;;;;;287.63;160.02;;;;;;;14.80;100.00;99406.75;5056252;28;20033;-80
2023/07/23 06:30:43;;;;;;;291.35;161.05;;;;;;;14.88;100.00;99414.50;5071601;28;20032;-82
2023/07/23 06:33:08;;;;;;;289.13;160.50;;;;;;;14.94;100.00;99407.31;5052013;28;20120;-80
2023/07/23 06:35:37;;;;;;;279.80;156.20;;;;;;;15.02;100.00;99404.22;5019316;28;20113;-79
2023/07/23 06:38:04;;;;;;;281.65;156.85;;;;;;;15.07;100.00;99411.66;5020462;28;20052;-79
2023/07/23 06:40:29;;;;;;;295.42;163.13;;;;;;;15.15;100.00;99414.81;5019123;28;20063;-80
2023/07/23 06:42:55;;;;;;;229.32;135.52;;;;;;;15.21;100.00;99415.72;5070379;28;20055;-80
2023/07/23 06:45:20;;;;;;;237.35;138.75;;;;;;;15.15;100.00;99403.16;5035455;28;20447;-80
2023/07/23 06:47:46;;;;;;;237.35;138.63;;;;;;;15.29;100.00;99422.66;5035693;28;20083;-80
2023/07/23 06:50:12;;;;;;;294.75;161.75;;;;;;;15.29;100.00;99417.25;5035732;28;20119;-80
2023/07/23 06:52:37;;;;;;;310.00;169.73;;;;;;;15.30;100.00;99422.44;5035804;28;20095;-80
2023/07/23 06:55:03;;;;;;;315.33;170.65;;;;;;;15.30;100.00;99417.00;5020319;28;20483;-80
2023/07/23 06:57:29;;;;;;;236.43;138.07;;;;;;;15.33;100.00;99426.56;5054978;28;20036;-80
2023/07/23 06:59:55;;;;;;;234.18;137.30;;;;;;;15.37;100.00;99431.25;5072153;28;20044;-80
2023/07/23 07:02:20;;;;;;;281.23;155.88;;;;;;;15.38;100.00;99413.94;5071767;28;20025;-80
2023/07/23 07:04:46;;;;;;;288.10;158.35;;;;;;;15.46;100.00;99420.03;5072922;28;20032;-81
2023/07/23 07:07:11;;;;;;;287.23;158.32;;;;;;;15.47;100.00;99422.50;5071663;28;20020;-80
2023/07/23 07:09:37;;;;;;;280.23;155.50;;;;;;;15.50;100.00;99429.31;5038946;28;20482;-80
2023/07/23 07:12:03;;;;;;;242.82;140.13;;;;;;;15.59;100.00;99425.19;5055387;28;20039;-80
2023/07/23 07:14:28;;;;;;;271.00;151.48;;;;;;;15.65;100.00;99426.09;5054955;28;20040;-80
2023/07/23 07:16:54;;;;;;;277.42;153.80;;;;;;;15.74;100.00;99441.75;5054493;28;20040;-80
2023/07/23 07:19:19;;;;;;;242.63;139.48;;;;;;;15.75;100.00;99435.28;5038696;28;20028;-80
2023/07/23 07:21:45;;;;;;;237.30;137.43;;;;;;;15.81;100.00;99441.59;5055234;28;20028;-80
2023/07/23 07:24:12;;;;;;;245.05;140.35;;;;;;;15.73;100.00;99423.84;5059218;28;20343;-80
2023/07/23 07:26:37;;;;;;;238.50;137.82;;;;;;;15.89;100.00;99449.34;5075158;28;20052;-80
2023/07/23 07:29:03;;;;;;;242.82;139.68;;;;;;;15.83;100.00;99437.59;5058204;28;20115;-81
2023/07/23 07:31:29;;;;;;;238.70;138.10;;;;;;;15.93;100.00;99446.97;5042032;28;20039;-80
2023/07/23 07:33:54;;;;;;;238.25;137.70;;;;;;;15.88;100.00;99425.19;5042462;28;20032;-82
2023/07/23 07:36:20;;;;;;;253.15;143.55;;;;;;;16.05;100.00;99453.16;5058647;28;20471;-81
2023/07/23 07:38:46;;;;;;;240.43;138.30;;;;;;;16.07;100.00;99450.22;5041788;28;20064;-81
2023/07/23 07:41:11;;;;;;;242.10;139.00;;;;;;;16.05;100.00;99448.56;5041729;28;20081;-79
2023/07/23 07:43:39;;;;;;;302.63;163.45;;;;;;;16.08;100.00;99444.53;5041732;28;20040;-82
2023/07/23 07:46:07;;;;;;;266.48;148.93;;;;;;;16.14;100.00;99457.13;5075004;28;20032;-81
2023/07/23 07:48:35;;;;;;;282.20;154.82;;;;;;;16.13;100.00;99460.06;5058838;28;20037;-82
2023/07/23 07:51:07;;;;;;;295.73;160.98;;;;;;;16.21;100.00;99460.50;5058662;28;20037;-82
2023/07/23 07:53:34;;;;;;;277.75;154.07;;;;;;;16.25;100.00;99461.66;5057920;28;20112;-81
2023/07/23 07:56:00;;;;;;;292.58;159.77;;;;;;;16.32;100.00;99455.25;5075012;28;20142;-82
2023/07/23 07:58:27;;;;;;;300.42;163.32;;;;;;;16.33;100.00;99463.16;5057923;28;20044;-81
2023/07/23 08:00:56;;;;;;;311.98;168.48;;;;;;;16.31;100.00;99468.00;5041525;28;20394;-83
2023/07/23 08:03:24;;;;;;;301.50;163.48;;;;;;;16.32;100.00;99461.50;5058268;28;20032;-83
2023/07/23 08:05:50;;;;;;;306.95;164.93;;;;;;;16.26;100.00;99457.88;5074414;28;20427;-81
2023/07/23 08:08:28;;;;;;;310.85;166.73;;;;;;;16.32;100.00;99460.66;5074031;28;20028;-80
2023/07/23 08:10:58;;;;;;;326.92;174.88;;;;;;;16.30;100.00;99465.50;5057753;28;20497;-80
2023/07/23 08:13:24;;;;;;;302.05;163.35;;;;;;;16.31;100.00;99457.16;5042312;28;20028;-80
2023/07/23 08:15:54;;;;;;;305.00;164.15;;;;;;;16.38;100.00;99465.97;5058061;28;20052;-80
2023/07/23 08:18:28;;;;;;;294.65;160.30;;;;;;;16.33;100.00;99449.59;5056356;28;20391;-80
2023/07/23 08:20:58;;;;;;;308.80;165.45;;;;;;;16.63;100.00;99472.88;5074802;28;20033;-80
2023/07/23 08:23:25;;;;;;;310.88;166.82;;;;;;;16.71;100.00;99470.53;5057918;28;20032;-78
2023/07/23 08:25:58;;;;;;;330.13;176.32;;;;;;;16.92;100.00;99474.44;5073952;28;20024;-79
2023/07/23 08:28:50;;;;;;;342.33;181.60;;;;;;;17.02;100.00;99471.06;5040466;28;20036;-78
2023/07/23 08:31:18;;;;;;;333.17;177.10;;;;;;;17.13;100.00;99461.16;5073568;28;20028;-78
2023/07/23 08:33:47;;;;;;;244.68;139.32;;;;;;;17.19;100.00;99481.88;5057176;28;20040;-80
2023/07/23 08:36:13;;;;;;;243.50;138.82;;;;;;;17.32;100.00;99477.97;5053322;28;20048;-78
2023/07/23 08:38:39;;;;;;;244.45;139.23;;;;;;;17.33;100.00;99482.31;5073982;28;20119;-79
2023/07/23 08:41:16;;;;;;;297.67;161.48;;;;;;;17.47;100.00;99486.34;5074059;28;20029;-79
2023/07/23 08:44:03;;;;;;;332.02;175.90;;;;;;;17.66;100.00;99486.84;5073284;28;20033;-79
2023/07/23 08:46:29;;;;;;;334.10;176.15;;;;;;;17.73;100.00;99486.63;5053742;28;20036;-79
2023/07/23 08:48:54;;;;;;;322.88;171.05;;;;;;;18.08;100.00;99488.97;5063414;28;20033;-79
2023/07/23 08:51:21;;;;;;;323.45;171.02;;;;;;;18.35;100.00;99478.06;5073891;28;20033;-80
2023/07/23 08:53:48;;;;;;;347.90;181.57;;;;;;;18.55;100.00;99476.59;5056782;28;20032;-80
2023/07/23 08:56:15;;;;;;;351.95;182.68;;;;;;;18.84;100.00;99507.91;5073330;28;20423;-80
2023/07/23 08:58:41;;;;;;;327.60;171.38;;;;;;;18.87;100.00;99496.50;5073652;28;20056;-79
2023/07/23 09:01:08;;;;;;;328.92;171.63;;;;;;;19.04;100.00;99503.69;5040458;28;20210;-79
2023/07/23 09:03:34;;;;;;;333.05;173.30;;;;;;;19.06;100.00;99501.53;5056960;28;20040;-79
2023/07/23 09:06:00;;;;;;;360.25;184.75;;;;;;;19.24;100.00;99512.00;5073091;28;20028;-80
2023/07/23 09:08:25;;;;;;;303.90;160.68;;;;;;;19.25;100.00;99516.38;5055486;28;20040;-80
2023/07/23 09:10:54;;;;;;;356.23;182.20;;;;;;;19.14;100.00;99516.56;5071921;28;20028;-79
2023/07/23 09:13:20;;;;;;;360.98;184.65;;;;;;;19.04;100.00;99506.41;5072283;28;20039;-79
2023/07/23 09:15:53;;;;;;;356.40;182.57;;;;;;;19.07;100.00;99506.72;5057188;28;20111;-80
2023/07/23 09:18:20;;;;;;;358.17;183.50;;;;;;;19.19;100.00;99490.19;5056553;28;20071;-80
2023/07/23 09:20:49;;;;;;;365.05;186.18;;;;;;;19.49;100.00;99519.50;5039756;28;20044;-81
2023/07/23 09:23:15;;;;;;;367.83;187.00;;;;;;;19.32;100.00;99499.78;5055750;28;20514;-80
2023/07/23 09:25:44;;;;;;;369.33;187.65;;;;;;;19.24;100.00;99517.47;5052440;28;20037;-80
2023/07/23 09:28:27;;;;;;;370.45;188.45;;;;;;;19.16;100.00;99515.22;5038722;28;20037;-79
2023/07/23 09:30:57;;;;;;;368.42;187.27;;;;;;;19.08;100.00;99521.97;5036353;28;20033;-79
2023/07/23 09:33:36;;;;;;;368.42;187.57;;;;;;;19.13;100.00;99523.09;5045471;28;20119;-79
2023/07/23 09:36:03;;;;;;;370.13;187.95;;;;;;;19.15;100.00;99508.13;5039493;28;20040;-81
2023/07/23 09:38:30;;;;;;;372.80;188.77;;;;;;;19.57;100.00;99531.81;5056036;28;20029;-81
2023/07/23 09:40:56;;;;;;;374.92;189.80;;;;;;;19.75;100.00;99523.19;5056030;28;20037;-81
2023/07/23 09:43:22;;;;;;;369.92;187.07;;;;;;;20.05;100.00;99540.75;5056371;28;20054;-80
2023/07/23 09:45:47;;;;;;;375.85;189.38;;;;;;;20.40;100.00;99533.72;5072099;28;20040;-82
2023/07/23 09:48:17;;;;;;;381.15;191.27;;;;;;;20.73;100.00;99521.53;5038662;28;20031;-84
2023/07/23 09:50:46;;;;;;;384.10;192.23;;;;;;;20.99;100.00;99533.25;5056082;28;20060;-81
2023/07/23 09:53:17;;;;;;;381.05;190.18;;;;;;;21.04;100.00;99537.91;5055941;28;20024;-81
2023/07/23 09:55:44;;;;;;;380.75;190.10;;;;;;;20.94;100.00;99537.91;5072774;28;20493;-83
2023/07/23 09:58:10;;;;;;;380.55;190.00;;;;;;;20.69;100.00;99544.19;5039799;28;20079;-81
2023/07/23 10:00:36;;;;;;;384.90;192.23;;;;;;;20.25;100.00;99547.38;5030481;28;20101;-82
2023/07/23 10:03:03;;;;;;;376.30;188.25;;;;;;;20.20;100.00;99553.63;5072532;28;20040;-79
2023/07/23 10:05:28;;;;;;;382.88;191.68;;;;;;;20.01;100.00;99538.84;5072394;28;20032;-83
2023/07/23 10:07:54;;;;;;;386.25;193.48;;;;;;;20.24;100.00;99540.25;5039199;28;20036;-81
2023/07/23 10:10:20;;;;;;;383.60;191.98;;;;;;;20.62;100.00;99531.63;5072537;28;20041;-81
2023/07/23 10:12:46;;;;;;;387.08;192.80;;;;;;;21.05;100.00;99550.47;5055999;28;20044;-82
2023/07/23 10:15:12;;;;;;;385.95;192.35;;;;;;;21.20;100.00;99546.91;5072542;28;20036;-82
2023/07/23 10:17:44;;;;;;;389.65;193.35;;;;;;;21.52;100.00;99547.41;5039258;28;20104;-81
2023/07/23 10:20:11;;;;;;;389.13;193.15;;;;;;;21.73;100.00;99556.38;5052457;28;20044;-83
2023/07/23 10:22:39;;;;;;;391.98;193.65;;;;;;;21.81;100.00;99543.22;5036028;28;20040;-83
2023/07/23 10:25:37;;;;;;;393.42;194.52;;;;;;;21.55;100.00;99556.16;5019342;28;20037;-83
2023/07/23 10:28:05;;;;;;;397.65;196.48;;;;;;;21.57;100.00;99560.25;5010312;28;20047;-82
2023/07/23 10:30:32;;;;;;;394.45;194.88;;;;;;;21.41;100.00;99556.75;5025894;28;20032;-83
2023/07/23 10:33:11;;;;;;;391.13;193.05;;;;;;;21.58;100.00;99567.34;5052378;28;20483;-81
2023/07/23 10:35:49;;;;;;;394.60;195.43;;;;;;;21.64;100.00;99576.38;5071630;28;20037;-81
2023/07/23 10:38:24;;;;;;;398.50;196.10;;;;;;;21.54;100.00;99579.97;5054983;28;20032;-82
2023/07/23 10:40:50;;;;;;;400.95;198.00;;;;;;;21.27;100.00;99591.16;5072837;28;20028;-81
2023/07/23 10:43:16;;;;;;;393.35;194.77;;;;;;;20.88;100.00;99586.28;5038968;28;20043;-79
2023/07/23 10:46:12;;;;;;;398.25;197.30;;;;;;;20.16;100.00;99598.91;5072184;28;20119;-80
2023/07/23 10:48:38;;;;;;;396.50;196.68;;;;;;;19.61;100.00;99603.81;5043680;28;20167;-78
2023/07/23 10:51:08;;;;;;;396.60;197.43;;;;;;;19.16;100.00;99602.41;5051794;28;20385;-78
2023/07/23 10:53:37;;;;;;;394.35;197.20;;;;;;;19.14;100.00;99606.50;5052105;28;20032;-79